createdAt,value
2023-02-07T00:01:36.968Z,48.30
2023-02-07T00:04:05.669Z,48.30
2023-02-07T00:06:37.167Z,48.30
2023-02-07T00:09:08.362Z,48.30
2023-02-07T00:11:40.307Z,48.40
2023-02-07T00:14:10.249Z,48.40
2023-02-07T00:16:39.040Z,48.40
2023-02-07T00:19:07.530Z,48.40
2023-02-07T00:21:37.423Z,48.40
2023-02-07T00:24:06.198Z,48.40
2023-02-07T00:26:34.624Z,48.40
2023-02-07T00:29:02.930Z,48.50
2023-02-07T00:31:34.151Z,48.60
2023-02-07T00:34:06.550Z,48.70
2023-02-07T00:36:37.894Z,48.70
2023-02-07T00:39:08.034Z,48.70
2023-02-07T00:41:36.376Z,48.70
2023-02-07T00:44:05.228Z,48.90
2023-02-07T00:46:33.874Z,49.10
2023-02-07T00:49:02.375Z,49.30
2023-02-07T00:51:31.285Z,49.70
2023-02-07T00:54:01.765Z,49.80
2023-02-07T00:56:31.630Z,49.60
2023-02-07T00:59:00.353Z,49.70
2023-02-07T01:01:29.230Z,49.60
2023-02-07T01:03:58.378Z,49.40
2023-02-07T01:06:28.126Z,49.20
2023-02-07T01:08:59.232Z,49.10
2023-02-07T01:11:31.512Z,49.10
2023-02-07T01:14:01.798Z,49.10
2023-02-07T01:16:32.707Z,49.10
2023-02-07T01:19:03.015Z,49.10
2023-02-07T01:21:31.493Z,49.10
2023-02-07T01:24:00.813Z,50.00
2023-02-07T01:26:30.501Z,50.90
2023-02-07T01:28:59.217Z,51.40
2023-02-07T01:31:27.760Z,51.10
2023-02-07T01:33:57.352Z,50.70
2023-02-07T01:36:27.978Z,50.50
2023-02-07T01:38:57.269Z,50.20
2023-02-07T01:41:27.594Z,50.10
2023-02-07T01:44:03.727Z,49.90
2023-02-07T01:46:33.751Z,49.80
2023-02-07T01:49:06.141Z,49.80
2023-02-07T01:51:35.802Z,49.80
2023-02-07T01:54:07.899Z,49.80
2023-02-07T01:56:39.383Z,49.70
2023-02-07T01:59:09.324Z,49.80
2023-02-07T02:01:37.910Z,49.70
2023-02-07T02:04:06.743Z,49.70
2023-02-07T02:06:37.078Z,49.90
2023-02-07T02:09:11.090Z,50.00
2023-02-07T02:11:54.837Z,49.90
2023-02-07T02:14:36.928Z,49.90
2023-02-07T02:17:14.099Z,50.00
2023-02-07T02:20:09.630Z,49.90
2023-02-07T02:23:05.763Z,49.90
2023-02-07T02:26:22.089Z,49.90
2023-02-07T02:29:29.133Z,49.90
2023-02-07T02:32:36.503Z,50.00
2023-02-07T02:35:13.693Z,50.00
2023-02-07T02:37:50.336Z,50.00
2023-02-07T02:40:23.082Z,50.00
2023-02-07T02:42:57.125Z,50.00
2023-02-07T02:45:29.682Z,50.00
2023-02-07T02:47:59.207Z,50.10
2023-02-07T02:50:31.234Z,50.10
2023-02-07T02:52:59.647Z,50.10
2023-02-07T02:55:54.583Z,50.20
2023-02-07T02:58:33.977Z,50.30
2023-02-07T03:01:14.288Z,50.30
2023-02-07T03:04:06.506Z,50.30
2023-02-07T03:06:47.252Z,50.40
2023-02-07T03:09:29.834Z,50.30
2023-02-07T03:12:10.904Z,50.30
2023-02-07T03:14:50.170Z,50.40
2023-02-07T03:17:25.439Z,50.50
2023-02-07T03:19:59.656Z,50.40
2023-02-07T03:22:30.974Z,50.50
2023-02-07T03:25:02.585Z,50.90
2023-02-07T03:27:35.131Z,51.00
2023-02-07T03:30:07.848Z,50.90
2023-02-07T03:32:39.606Z,51.00
2023-02-07T03:35:14.995Z,51.20
2023-02-07T03:37:51.001Z,51.20
2023-02-07T03:40:20.123Z,51.70
2023-02-07T03:42:52.125Z,51.80
2023-02-07T03:45:22.991Z,52.00
2023-02-07T03:47:51.609Z,52.20
2023-02-07T03:50:20.194Z,52.10
2023-02-07T03:52:49.833Z,52.10
2023-02-07T03:55:18.294Z,52.00
2023-02-07T03:57:46.651Z,51.70
2023-02-07T04:00:15.817Z,51.50
2023-02-07T04:02:46.581Z,51.30
2023-02-07T04:05:14.912Z,51.30
2023-02-07T04:07:43.253Z,51.60
2023-02-07T04:10:13.575Z,51.60
2023-02-07T04:12:41.980Z,51.60
2023-02-07T04:15:11.243Z,51.40
2023-02-07T04:17:39.886Z,51.70
2023-02-07T04:20:09.242Z,51.80
2023-02-07T04:22:37.655Z,52.40
2023-02-07T04:25:06.987Z,51.70
2023-02-07T04:27:36.600Z,51.60
2023-02-07T04:30:05.314Z,51.50
2023-02-07T04:32:33.682Z,51.40
2023-02-07T04:35:02.061Z,51.40
2023-02-07T04:37:30.411Z,51.40
2023-02-07T04:39:58.899Z,51.30
2023-02-07T04:42:27.368Z,51.30
2023-02-07T04:44:57.160Z,51.20
2023-02-07T04:47:25.824Z,51.20
2023-02-07T04:49:54.200Z,51.20
2023-02-07T04:52:22.697Z,51.30
2023-02-07T04:54:51.080Z,51.30
2023-02-07T04:57:19.432Z,51.30
2023-02-07T04:59:47.862Z,51.20
2023-02-07T05:02:17.656Z,51.20
2023-02-07T05:04:46.166Z,51.30
2023-02-07T05:07:14.555Z,51.30
2023-02-07T05:09:42.914Z,51.40
2023-02-07T05:12:11.276Z,51.40
2023-02-07T05:14:39.697Z,51.40
2023-02-07T05:17:08.084Z,52.10
2023-02-07T05:19:37.677Z,51.60
2023-02-07T05:22:06.250Z,51.60
2023-02-07T05:24:34.647Z,51.50
2023-02-07T05:27:03.117Z,51.60
2023-02-07T05:29:31.498Z,51.50
2023-02-07T05:32:17.260Z,51.50
2023-02-07T05:34:46.874Z,51.50
2023-02-07T05:37:15.266Z,51.90
2023-02-07T05:39:43.616Z,52.00
2023-02-07T05:42:11.954Z,52.00
2023-02-07T05:44:40.304Z,52.00
2023-02-07T05:47:09.736Z,51.90
2023-02-07T05:49:39.402Z,51.90
2023-02-07T05:52:09.133Z,51.90
2023-02-07T05:54:37.499Z,52.20
2023-02-07T05:57:06.159Z,52.30
2023-02-07T05:59:34.591Z,52.30
2023-02-07T06:02:02.984Z,52.30
2023-02-07T06:04:31.390Z,52.30
2023-02-07T06:06:59.849Z,52.60
2023-02-07T06:09:29.595Z,52.90
2023-02-07T06:11:58.111Z,53.00
2023-02-07T06:14:26.538Z,53.10
2023-02-07T06:16:54.818Z,53.30
2023-02-07T06:19:23.170Z,53.30
2023-02-07T06:21:51.580Z,53.20
2023-02-07T06:24:20.051Z,53.20
2023-02-07T06:26:50.423Z,53.20
2023-02-07T06:29:18.922Z,53.30
2023-02-07T06:31:47.355Z,53.40
2023-02-07T06:34:15.765Z,53.60
2023-02-07T06:36:44.138Z,53.80
2023-02-07T06:39:12.555Z,53.90
2023-02-07T06:41:40.951Z,54.20
2023-02-07T06:44:10.703Z,55.30
2023-02-07T06:46:39.232Z,56.50
2023-02-07T06:49:07.549Z,57.40
2023-02-07T06:51:36.033Z,58.20
2023-02-07T06:54:08.424Z,58.10
2023-02-07T06:56:36.921Z,58.10
2023-02-07T06:59:05.480Z,58.10
2023-02-07T07:01:35.157Z,57.90
2023-02-07T07:04:03.561Z,57.80
2023-02-07T07:06:32.290Z,57.30
2023-02-07T07:09:00.711Z,56.30
2023-02-07T07:11:29.171Z,55.70
2023-02-07T07:13:57.527Z,55.20
2023-02-07T07:16:26.081Z,54.90
2023-02-07T07:18:55.823Z,54.50
2023-02-07T07:21:24.231Z,53.90
2023-02-07T07:23:52.711Z,53.20
2023-02-07T07:26:21.350Z,52.50
2023-02-07T07:28:49.821Z,51.70
2023-02-07T07:31:18.299Z,51.30
2023-02-07T07:33:46.627Z,50.90
2023-02-07T07:36:16.317Z,50.40
2023-02-07T07:38:47.409Z,49.70
2023-02-07T07:41:16.252Z,48.70
2023-02-07T07:43:44.654Z,48.40
2023-02-07T07:46:13.008Z,47.80
2023-02-07T07:48:41.383Z,47.20
2023-02-07T07:51:09.840Z,47.00
2023-02-07T07:53:39.488Z,46.40
2023-02-07T07:56:08.098Z,45.10
2023-02-07T07:58:36.549Z,44.40
2023-02-07T08:01:05.001Z,44.00
2023-02-07T08:03:33.472Z,42.90
2023-02-07T08:06:01.923Z,42.40
2023-02-07T08:08:30.330Z,41.70
2023-02-07T08:11:06.609Z,41.40
2023-02-07T08:13:35.061Z,40.90
2023-02-07T08:16:03.923Z,40.80
2023-02-07T08:18:32.488Z,40.40
2023-02-07T08:21:00.941Z,39.90
2023-02-07T08:23:29.942Z,39.00
2023-02-07T08:25:58.301Z,38.60
2023-02-07T08:28:28.622Z,38.30
2023-02-07T08:31:01.489Z,38.40
2023-02-07T08:33:30.489Z,38.10
2023-02-07T08:36:00.683Z,38.00
2023-02-07T08:38:29.146Z,37.60
2023-02-07T08:40:57.581Z,37.20
2023-02-07T08:43:27.434Z,37.00
2023-02-07T08:45:56.057Z,36.70
2023-02-07T08:48:24.439Z,36.60
2023-02-07T08:50:52.896Z,36.50
2023-02-07T08:53:21.227Z,36.30
2023-02-07T08:55:49.659Z,36.10
2023-02-07T08:58:18.082Z,35.70
2023-02-07T09:00:47.835Z,36.10
2023-02-07T09:03:16.459Z,35.70
2023-02-07T09:05:44.869Z,35.30
2023-02-07T09:08:13.274Z,34.20
2023-02-07T09:10:42.212Z,33.80
2023-02-07T09:13:10.834Z,33.30
2023-02-07T09:15:39.347Z,33.00
2023-02-07T09:18:09.049Z,31.70
2023-02-07T09:20:38.770Z,31.60
2023-02-07T09:23:19.635Z,31.30
2023-02-07T09:25:49.407Z,30.10
2023-02-07T09:28:18.282Z,28.90
2023-02-07T09:30:48.811Z,28.90
2023-02-07T09:33:18.837Z,28.90
2023-02-07T09:35:48.692Z,28.60
2023-02-07T09:38:19.228Z,27.90
2023-02-07T09:40:48.727Z,28.50
2023-02-07T09:43:36.243Z,28.60
2023-02-07T09:46:11.920Z,28.60
2023-02-07T09:48:47.857Z,28.20
2023-02-07T09:51:20.802Z,28.40
2023-02-07T09:53:54.820Z,28.40
2023-02-07T09:56:25.611Z,27.80
2023-02-07T09:59:00.450Z,28.10
2023-02-07T10:01:33.738Z,27.90
2023-02-07T10:04:18.483Z,28.10
2023-02-07T10:06:51.364Z,28.00
2023-02-07T10:09:23.414Z,27.90
2023-02-07T10:11:55.235Z,27.80
2023-02-07T10:14:38.779Z,27.90
2023-02-07T10:17:36.117Z,27.90
2023-02-07T10:20:30.687Z,27.50
2023-02-07T10:23:11.262Z,27.60
2023-02-07T10:25:51.796Z,27.70
2023-02-07T10:28:54.474Z,27.60
2023-02-07T10:31:26.050Z,27.30
2023-02-07T10:33:59.388Z,27.40
2023-02-07T10:36:33.916Z,27.20
2023-02-07T10:39:09.740Z,27.00
2023-02-07T10:41:40.810Z,26.60
2023-02-07T10:44:13.523Z,26.70
2023-02-07T10:46:44.339Z,26.50
2023-02-07T10:49:25.264Z,26.40
2023-02-07T10:51:58.182Z,26.70
2023-02-07T10:54:27.165Z,26.70
2023-02-07T10:57:01.768Z,26.40
2023-02-07T10:59:37.699Z,26.50
2023-02-07T11:02:44.820Z,26.00
2023-02-07T11:05:41.960Z,25.90
2023-02-07T11:08:24.837Z,25.20
2023-02-07T11:10:54.913Z,26.00
2023-02-07T11:13:27.895Z,25.90
2023-02-07T11:16:00.942Z,25.80
2023-02-07T11:18:43.487Z,25.60
2023-02-07T11:21:30.792Z,25.70
2023-02-07T11:24:03.182Z,26.00
2023-02-07T11:26:34.573Z,25.60
2023-02-07T11:29:15.873Z,25.70
2023-02-07T11:31:47.501Z,25.90
2023-02-07T11:34:47.239Z,25.50
2023-02-07T11:37:27.138Z,25.20
2023-02-07T11:39:58.742Z,25.50
2023-02-07T11:42:32.639Z,25.50
2023-02-07T11:45:06.520Z,25.60
2023-02-07T11:47:38.488Z,25.40
2023-02-07T11:50:08.827Z,25.20
2023-02-07T11:52:40.962Z,25.20
2023-02-07T11:55:24.831Z,25.30
2023-02-07T11:57:57.764Z,24.80
2023-02-07T12:00:29.662Z,25.00
2023-02-07T12:03:03.670Z,25.20
2023-02-07T12:05:37.388Z,25.40
2023-02-07T12:08:12.978Z,25.50
2023-02-07T12:10:47.080Z,25.60
2023-02-07T12:13:19.827Z,25.80
2023-02-07T12:15:52.494Z,24.80
2023-02-07T12:18:29.850Z,25.40
2023-02-07T12:21:03.425Z,25.50
2023-02-07T12:23:43.692Z,25.80
2023-02-07T12:26:22.851Z,25.80
2023-02-07T12:29:12.452Z,25.90
2023-02-07T12:31:51.015Z,25.60
2023-02-07T12:34:26.601Z,25.60
2023-02-07T12:37:02.401Z,26.00
2023-02-07T12:39:37.852Z,25.50
2023-02-07T12:42:23.948Z,25.60
2023-02-07T12:44:56.618Z,25.70
2023-02-07T12:47:36.985Z,26.50
2023-02-07T12:50:17.666Z,26.60
2023-02-07T12:52:54.308Z,26.70
2023-02-07T12:55:35.240Z,26.90
2023-02-07T12:58:16.818Z,26.50
2023-02-07T13:00:54.190Z,25.70
2023-02-07T13:03:33.356Z,25.90
2023-02-07T13:06:12.856Z,25.80
2023-02-07T13:08:56.040Z,25.40
2023-02-07T13:11:37.230Z,25.90
2023-02-07T13:14:25.970Z,25.80
2023-02-07T13:17:09.143Z,25.20
2023-02-07T13:19:47.436Z,25.10
2023-02-07T13:22:26.570Z,24.80
2023-02-07T13:24:56.863Z,25.40
2023-02-07T13:27:28.890Z,25.20
2023-02-07T13:30:00.931Z,24.40
2023-02-07T13:32:29.979Z,24.70
2023-02-07T13:35:01.797Z,25.20
2023-02-07T13:37:38.368Z,25.30
2023-02-07T13:40:22.729Z,25.20
2023-02-07T13:42:57.776Z,25.00
2023-02-07T13:45:37.576Z,25.20
2023-02-07T13:48:16.502Z,24.70
2023-02-07T13:50:52.135Z,24.90
2023-02-07T13:53:40.884Z,24.50
2023-02-07T13:56:33.578Z,23.70
2023-02-07T13:59:20.643Z,23.80
2023-02-07T14:01:59.129Z,24.10
2023-02-07T14:04:51.123Z,24.30
2023-02-07T14:07:29.145Z,24.10
2023-02-07T14:09:59.274Z,23.70
2023-02-07T14:12:30.088Z,23.80
2023-02-07T14:15:42.953Z,23.70
2023-02-07T14:18:40.834Z,23.80
2023-02-07T14:21:26.749Z,23.80
2023-02-07T14:24:18.131Z,24.00
2023-02-07T14:27:30.541Z,23.80
2023-02-07T14:30:17.936Z,23.80
2023-02-07T14:33:11.363Z,23.80
2023-02-07T14:36:03.397Z,24.00
2023-02-07T14:38:36.050Z,24.00
2023-02-07T14:41:11.066Z,24.30
2023-02-07T14:43:56.835Z,24.10
2023-02-07T14:46:37.744Z,24.00
2023-02-07T14:49:09.493Z,23.50
2023-02-07T14:51:46.975Z,23.60
2023-02-07T14:54:21.307Z,23.50
2023-02-07T14:56:54.776Z,23.60
2023-02-07T14:59:30.822Z,23.60
2023-02-07T15:02:19.296Z,24.40
2023-02-07T15:04:47.949Z,24.70
2023-02-07T15:07:19.368Z,25.00
2023-02-07T15:09:47.792Z,25.30
2023-02-07T15:12:27.395Z,25.30
2023-02-07T15:14:58.012Z,25.40
2023-02-07T15:17:39.328Z,25.60
2023-02-07T15:20:17.239Z,26.20
2023-02-07T15:22:51.056Z,27.70
2023-02-07T15:25:20.146Z,28.60
2023-02-07T15:28:00.828Z,29.00
2023-02-07T15:30:30.019Z,29.10
2023-02-07T15:32:58.503Z,29.10
2023-02-07T15:35:29.360Z,29.10
2023-02-07T15:38:16.603Z,29.20
2023-02-07T15:40:45.658Z,29.50
2023-02-07T15:43:31.602Z,29.70
2023-02-07T15:46:07.191Z,30.00
2023-02-07T15:48:47.378Z,30.20
2023-02-07T15:51:19.163Z,30.70
2023-02-07T15:53:53.180Z,31.00
2023-02-07T15:56:21.935Z,31.30
2023-02-07T15:58:51.942Z,32.10
2023-02-07T16:01:33.961Z,32.60
2023-02-07T16:04:05.325Z,33.80
2023-02-07T16:06:33.796Z,33.30
2023-02-07T16:09:06.202Z,33.40
2023-02-07T16:11:41.117Z,33.40
2023-02-07T16:14:22.382Z,33.80
2023-02-07T16:16:52.666Z,34.50
2023-02-07T16:19:26.701Z,34.50
2023-02-07T16:22:03.904Z,34.30
2023-02-07T16:24:36.718Z,34.60
2023-02-07T16:27:06.831Z,35.20
2023-02-07T16:29:37.022Z,35.10
2023-02-07T16:32:05.638Z,35.30
2023-02-07T16:34:34.046Z,35.60
2023-02-07T16:37:02.583Z,35.90
2023-02-07T16:39:32.158Z,36.10
2023-02-07T16:42:06.919Z,36.30
2023-02-07T16:44:36.684Z,36.50
2023-02-07T16:47:05.051Z,36.90
2023-02-07T16:49:34.352Z,37.40
2023-02-07T16:52:02.830Z,37.80
2023-02-07T16:54:31.357Z,37.80
2023-02-07T16:57:04.163Z,37.90
2023-02-07T16:59:32.888Z,37.80
2023-02-07T17:02:01.413Z,38.00
2023-02-07T17:04:29.935Z,38.20
2023-02-07T17:06:58.326Z,38.40
2023-02-07T17:09:27.617Z,38.70
2023-02-07T17:11:57.072Z,39.90
2023-02-07T17:14:28.198Z,40.50
2023-02-07T17:17:03.626Z,41.30
2023-02-07T17:19:32.055Z,40.40
2023-02-07T17:22:00.426Z,40.50
2023-02-07T17:24:28.830Z,40.70
2023-02-07T17:26:57.567Z,40.20
2023-02-07T17:29:27.338Z,39.80
2023-02-07T17:31:55.864Z,39.70
2023-02-07T17:34:24.361Z,39.70
2023-02-07T17:36:52.930Z,39.80
2023-02-07T17:39:21.915Z,39.60
2023-02-07T17:41:50.345Z,40.00
2023-02-07T17:44:21.647Z,40.40
2023-02-07T17:46:51.514Z,40.50
2023-02-07T17:49:20.010Z,40.40
2023-02-07T17:51:48.484Z,40.70
2023-02-07T17:54:17.042Z,40.90
2023-02-07T17:56:45.515Z,40.90
2023-02-07T17:59:23.977Z,41.00
2023-02-07T18:01:54.200Z,41.20
2023-02-07T18:04:23.111Z,42.30
2023-02-07T18:06:51.487Z,42.30
2023-02-07T18:09:21.409Z,42.40
2023-02-07T18:11:50.616Z,42.50
2023-02-07T18:14:19.561Z,42.60
2023-02-07T18:16:48.139Z,42.50
2023-02-07T18:19:19.178Z,42.40
2023-02-07T18:21:47.899Z,42.30
2023-02-07T18:24:16.694Z,42.60
2023-02-07T18:26:46.469Z,44.10
2023-02-07T18:29:14.900Z,44.80
2023-02-07T18:31:43.741Z,44.30
2023-02-07T18:34:12.242Z,43.90
2023-02-07T18:36:41.980Z,43.70
2023-02-07T18:39:10.770Z,43.60
2023-02-07T18:41:39.351Z,43.50
2023-02-07T18:44:08.326Z,43.50
2023-02-07T18:46:37.470Z,43.30
2023-02-07T18:49:05.836Z,43.30
2023-02-07T18:51:34.958Z,43.50
2023-02-07T18:54:04.672Z,43.60
2023-02-07T18:56:35.658Z,43.60
2023-02-07T18:59:04.770Z,43.50
2023-02-07T19:01:35.338Z,43.40
2023-02-07T19:04:03.805Z,43.40
2023-02-07T19:06:34.800Z,43.80
2023-02-07T19:09:04.557Z,44.10
2023-02-07T19:11:33.058Z,44.70
2023-02-07T19:14:01.345Z,45.10
2023-02-07T19:16:30.391Z,45.10
2023-02-07T19:19:02.051Z,45.20
2023-02-07T19:21:31.450Z,45.40
2023-02-07T19:24:00.326Z,45.30
2023-02-07T19:26:29.975Z,45.60
2023-02-07T19:28:59.513Z,45.60
2023-02-07T19:31:29.356Z,45.20
2023-02-07T19:33:59.943Z,45.20
2023-02-07T19:36:30.368Z,45.00
2023-02-07T19:38:59.341Z,45.00
2023-02-07T19:41:30.517Z,45.70
2023-02-07T19:43:59.125Z,45.20
2023-02-07T19:46:27.870Z,45.40
2023-02-07T19:48:57.137Z,45.60
2023-02-07T19:51:28.608Z,45.50
2023-02-07T19:53:57.411Z,45.50
2023-02-07T19:56:29.031Z,45.70
2023-02-07T19:58:58.978Z,45.90
2023-02-07T20:01:27.712Z,46.40
2023-02-07T20:03:56.719Z,46.30
2023-02-07T20:06:29.227Z,46.60
2023-02-07T20:08:58.166Z,46.80
2023-02-07T20:11:26.789Z,46.80
2023-02-07T20:13:57.558Z,47.10
2023-02-07T20:16:27.701Z,47.00
2023-02-07T20:18:57.238Z,46.90
2023-02-07T20:21:27.683Z,46.70
2023-02-07T20:23:57.845Z,46.60
2023-02-07T20:26:30.452Z,46.50
2023-02-07T20:29:01.687Z,46.50
2023-02-07T20:31:32.346Z,46.50
2023-02-07T20:34:02.276Z,46.50
2023-02-07T20:36:32.187Z,46.70
2023-02-07T20:39:01.847Z,46.60
2023-02-07T20:41:30.767Z,46.60
2023-02-07T20:44:03.039Z,46.80
2023-02-07T20:46:35.924Z,46.70
2023-02-07T20:49:07.032Z,46.70
2023-02-07T20:51:35.738Z,46.80
2023-02-07T20:54:06.703Z,46.70
2023-02-07T20:56:37.323Z,46.60
2023-02-07T20:59:06.239Z,46.50
2023-02-07T21:01:36.730Z,46.60
2023-02-07T21:04:06.796Z,46.50
2023-02-07T21:06:36.876Z,46.50
2023-02-07T21:09:07.635Z,46.50
2023-02-07T21:11:37.889Z,46.80
2023-02-07T21:14:07.955Z,46.70
2023-02-07T21:16:37.780Z,46.50
2023-02-07T21:19:06.406Z,46.50
2023-02-07T21:21:34.706Z,46.60
2023-02-07T21:24:03.657Z,46.60
2023-02-07T21:26:32.036Z,46.60
2023-02-07T21:29:01.597Z,46.70
2023-02-07T21:31:33.079Z,46.80
2023-02-07T21:34:05.048Z,46.70
2023-02-07T21:36:37.647Z,46.90
2023-02-07T21:39:09.315Z,46.90
2023-02-07T21:41:39.590Z,47.00
2023-02-07T21:44:08.436Z,47.00
2023-02-07T21:46:39.534Z,47.00
2023-02-07T21:49:16.298Z,47.20
2023-02-07T21:51:47.162Z,47.20
2023-02-07T21:54:15.656Z,47.10
2023-02-07T21:56:45.028Z,47.30
2023-02-07T21:59:15.333Z,47.30
2023-02-07T22:01:44.895Z,47.30
2023-02-07T22:04:15.554Z,47.30
2023-02-07T22:06:47.457Z,47.20
2023-02-07T22:09:18.465Z,47.30
2023-02-07T22:11:47.733Z,47.40
2023-02-07T22:14:17.120Z,47.50
2023-02-07T22:16:46.589Z,48.30
2023-02-07T22:19:17.389Z,49.70
2023-02-07T22:21:46.382Z,49.80
2023-02-07T22:24:16.957Z,49.40
2023-02-07T22:26:46.454Z,49.10
2023-02-07T22:29:15.135Z,48.90
2023-02-07T22:31:43.822Z,49.60
2023-02-07T22:34:15.764Z,49.70
2023-02-07T22:36:45.931Z,49.60
2023-02-07T22:39:16.064Z,49.70
2023-02-07T22:41:44.713Z,49.50
2023-02-07T22:44:13.274Z,50.30
2023-02-07T22:46:41.724Z,50.00
2023-02-07T22:49:10.099Z,49.70
2023-02-07T22:51:40.062Z,49.50
2023-02-07T22:54:10.989Z,49.40
2023-02-07T22:56:40.411Z,49.40
2023-02-07T22:59:09.210Z,49.30
2023-02-07T23:01:39.949Z,49.30
2023-02-07T23:04:12.505Z,49.20
2023-02-07T23:06:42.521Z,49.20
2023-02-07T23:09:10.991Z,49.20
2023-02-07T23:11:39.338Z,49.20
2023-02-07T23:14:07.735Z,49.20
2023-02-07T23:16:37.005Z,49.10
2023-02-07T23:19:08.102Z,49.10
2023-02-07T23:21:36.602Z,49.40
2023-02-07T23:24:06.705Z,49.40
2023-02-07T23:26:35.611Z,49.30
2023-02-07T23:29:04.238Z,49.20
2023-02-07T23:31:32.767Z,49.20
2023-02-07T23:34:01.289Z,49.30
2023-02-07T23:36:30.041Z,49.20
2023-02-07T23:38:58.479Z,49.20
2023-02-07T23:41:28.551Z,49.00
2023-02-07T23:44:00.361Z,48.90
2023-02-07T23:46:30.816Z,49.00
2023-02-07T23:48:59.363Z,49.10
2023-02-07T23:51:28.819Z,49.20
2023-02-07T23:53:57.091Z,49.30
2023-02-07T23:56:27.225Z,49.50
2023-02-07T23:58:55.757Z,49.30
